Time;durP1;ratioP1;P1;durP2;ratioP2;P2;SDS_P1;SDS_P2;PMS_P1;PMS_P2;Temp;Humidity;BMP_temperature;BMP_pressure;BME280_temperature;BME280_humidity;BME280_pressure;Samples;Min_cycle;Max_cycle;Signal;HPM_P1;HPM_P2
2021/11/03 00:00:44;;;;;;;4.78;3.90;;;6.60;70.90;;;;;;4987354;28;20396;-81
2021/11/03 00:03:10;;;;;;;3.92;3.53;;;6.60;71.00;;;;;;4987876;28;20277;-81
2021/11/03 00:05:47;;;;;;;4.13;3.47;;;6.50;70.80;;;;;;4978645;28;20030;-83
2021/11/03 00:08:19;;;;;;;5.60;4.00;;;6.50;70.80;;;;;;4987453;28;20462;-82
2021/11/03 00:10:49;;;;;;;4.47;3.60;;;6.50;70.80;;;;;;4987232;28;20193;-82
2021/11/03 00:13:19;;;;;;;5.30;4.50;;;6.50;70.80;;;;;;5002564;28;20608;-81
2021/11/03 00:15:45;;;;;;;4.80;3.97;;;6.50;70.90;;;;;;4988000;28;20052;-81
2021/11/03 00:18:11;;;;;;;5.05;3.85;;;6.50;70.90;;;;;;4987079;28;20030;-81
2021/11/03 00:20:37;;;;;;;4.80;3.78;;;6.50;70.90;;;;;;4988198;28;20034;-81
2021/11/03 00:23:04;;;;;;;6.40;4.07;;;6.40;70.70;;;;;;4985868;28;20049;-81
2021/11/03 00:25:31;;;;;;;4.00;3.28;;;6.40;70.80;;;;;;4987387;28;20041;-79
2021/11/03 00:27:57;;;;;;;5.18;4.28;;;6.40;70.80;;;;;;4987510;28;20061;-80
2021/11/03 00:30:23;;;;;;;4.40;3.80;;;6.40;70.80;;;;;;5005233;28;20378;-80
2021/11/03 00:32:49;;;;;;;5.20;4.07;;;6.40;70.80;;;;;;5020430;28;20056;-81
2021/11/03 00:35:16;;;;;;;4.78;3.80;;;6.40;70.80;;;;;;4987136;28;20022;-79
2021/11/03 00:37:42;;;;;;;5.80;4.75;;;6.30;70.70;;;;;;4986221;28;20494;-79
2021/11/03 00:40:10;;;;;;;5.90;4.57;;;6.30;70.70;;;;;;4976858;28;20031;-79
2021/11/03 00:42:36;;;;;;;6.43;4.45;;;6.30;70.70;;;;;;4997962;28;20026;-82
2021/11/03 00:45:04;;;;;;;5.38;4.03;;;6.30;70.70;;;;;;4994070;28;20030;-83
2021/11/03 00:47:30;;;;;;;6.20;4.60;;;6.30;70.70;;;;;;4992102;28;20034;-82
2021/11/03 00:49:57;;;;;;;5.47;4.55;;;6.30;70.70;;;;;;4990264;28;20049;-82
2021/11/03 00:52:23;;;;;;;5.50;4.05;;;6.30;70.70;;;;;;5002151;28;20046;-84
2021/11/03 00:54:50;;;;;;;5.05;3.92;;;6.20;70.60;;;;;;5003905;28;20253;-83
2021/11/03 00:57:16;;;;;;;5.68;4.57;;;6.30;70.70;;;;;;5006906;28;20037;-85
2021/11/03 00:59:43;;;;;;;6.10;4.30;;;6.20;70.60;;;;;;5008903;28;20058;-82
2021/11/03 01:02:09;;;;;;;5.78;4.43;;;6.20;70.60;;;;;;4986418;28;20034;-82
2021/11/03 01:04:36;;;;;;;6.47;4.30;;;6.20;70.60;;;;;;5001803;28;20494;-81
2021/11/03 01:07:03;;;;;;;5.65;4.55;;;6.20;70.60;;;;;;4998317;28;20414;-81
2021/11/03 01:09:30;;;;;;;5.57;4.10;;;6.10;70.40;;;;;;4986023;28;20042;-82
2021/11/03 01:11:56;;;;;;;6.75;5.00;;;6.10;70.40;;;;;;4985446;28;20053;-81
2021/11/03 01:14:23;;;;;;;5.82;4.97;;;6.10;70.40;;;;;;4977398;28;20065;-81
2021/11/03 01:16:49;;;;;;;6.35;4.55;;;6.10;70.40;;;;;;5001404;28;20182;-82
2021/11/03 01:19:15;;;;;;;6.22;4.72;;;6.10;70.40;;;;;;4985152;28;20029;-82
2021/11/03 01:21:44;;;;;;;6.70;4.40;;;6.00;70.30;;;;;;4986522;28;20312;-82
2021/11/03 01:24:10;;;;;;;6.10;4.72;;;6.10;70.50;;;;;;4986207;28;20122;-79
2021/11/03 01:26:37;;;;;;;5.75;4.47;;;6.00;70.30;;;;;;4986444;28;20379;-80
2021/11/03 01:29:04;;;;;;;6.03;4.57;;;6.00;70.30;;;;;;4969095;28;20097;-80
2021/11/03 01:31:31;;;;;;;6.88;4.90;;;6.00;70.30;;;;;;4986237;28;20591;-81
2021/11/03 01:33:59;;;;;;;5.22;3.80;;;6.00;70.30;;;;;;4986867;28;20041;-81
2021/11/03 01:36:25;;;;;;;4.57;3.75;;;5.90;70.10;;;;;;4985552;28;20113;-80
2021/11/03 01:38:52;;;;;;;6.07;5.07;;;5.90;70.10;;;;;;5001437;28;20035;-78
2021/11/03 01:41:21;;;;;;;5.10;4.25;;;5.90;70.10;;;;;;5001662;28;20042;-81
2021/11/03 01:43:51;;;;;;;5.47;4.40;;;5.90;70.10;;;;;;5001465;28;20371;-81
2021/11/03 01:46:38;;;;;;;5.53;4.90;;;5.90;70.10;;;;;;4976536;28;20037;-81
2021/11/03 01:49:19;;;;;;;7.05;4.32;;;5.80;69.90;;;;;;4996244;28;20048;-80
2021/11/03 01:52:01;;;;;;;5.00;4.00;;;5.80;70.00;;;;;;4989530;28;20422;-81
2021/11/03 01:54:53;;;;;;;5.45;4.38;;;5.80;70.00;;;;;;4988712;28;20027;-83
2021/11/03 01:57:29;;;;;;;5.53;4.10;;;5.80;70.00;;;;;;4989652;28;20037;-82
2021/11/03 02:00:00;;;;;;;5.50;4.07;;;5.80;69.90;;;;;;5004745;28;20584;-82
2021/11/03 02:02:33;;;;;;;5.90;3.92;;;5.80;69.90;;;;;;5004548;28;20575;-82
2021/11/03 02:04:59;;;;;;;6.15;4.55;;;5.70;69.80;;;;;;4989971;28;20192;-82
2021/11/03 02:07:27;;;;;;;5.22;4.55;;;5.70;69.80;;;;;;5005052;28;20486;-81
2021/11/03 02:09:56;;;;;;;6.28;4.22;;;5.70;69.80;;;;;;5004463;28;20034;-82
2021/11/03 02:12:26;;;;;;;5.43;4.75;;;5.70;69.90;;;;;;5004676;28;20076;-83
2021/11/03 02:14:53;;;;;;;5.28;4.40;;;5.70;69.90;;;;;;5004448;28;20398;-84
2021/11/03 02:17:22;;;;;;;7.50;4.40;;;5.70;69.90;;;;;;5004714;28;20062;-84
2021/11/03 02:19:50;;;;;;;5.47;4.38;;;5.60;69.70;;;;;;4992330;28;20124;-82
2021/11/03 02:22:26;;;;;;;5.25;4.32;;;5.60;69.80;;;;;;5008291;28;20034;-82
2021/11/03 02:25:15;;;;;;;6.65;4.60;;;5.60;69.80;;;;;;4973318;28;20497;-81
2021/11/03 02:27:46;;;;;;;6.35;4.60;;;5.60;69.80;;;;;;4988033;28;20190;-82
2021/11/03 02:30:16;;;;;;;7.20;4.85;;;5.60;69.70;;;;;;5003739;28;20033;-80
2021/11/03 02:32:43;;;;;;;5.20;4.60;;;5.60;69.70;;;;;;4989309;28;20500;-80
2021/11/03 02:35:13;;;;;;;6.25;4.78;;;5.50;69.60;;;;;;4989861;28;20375;-82
2021/11/03 02:37:50;;;;;;;5.60;4.47;;;5.50;69.60;;;;;;4989581;28;20034;-81
2021/11/03 02:40:42;;;;;;;6.00;4.55;;;5.50;69.60;;;;;;5006348;28;20072;-79
2021/11/03 02:43:23;;;;;;;5.88;4.03;;;5.50;69.60;;;;;;5008491;28;20045;-82
2021/11/03 02:45:59;;;;;;;6.32;4.75;;;5.50;69.60;;;;;;5004484;28;20121;-80
2021/11/03 02:48:28;;;;;;;6.25;4.82;;;5.40;69.40;;;;;;4989342;28;20122;-80
2021/11/03 02:51:07;;;;;;;4.68;3.95;;;5.40;69.40;;;;;;4979923;28;20549;-80
2021/11/03 02:53:41;;;;;;;4.97;4.20;;;5.40;69.40;;;;;;4957262;28;20494;-80
2021/11/03 02:56:08;;;;;;;4.32;3.75;;;5.40;69.40;;;;;;4972817;28;20550;-80
2021/11/03 02:58:36;;;;;;;5.32;3.88;;;5.40;69.40;;;;;;4973311;28;20027;-81
2021/11/03 03:01:32;;;;;;;4.80;4.18;;;5.40;69.40;;;;;;4971612;28;20494;-80
2021/11/03 03:04:01;;;;;;;4.88;4.15;;;5.30;69.20;;;;;;4971508;28;20462;-82
2021/11/03 03:06:30;;;;;;;5.38;3.83;;;5.30;69.30;;;;;;4973021;28;20035;-80
2021/11/03 03:08:58;;;;;;;4.65;3.92;;;5.30;69.30;;;;;;4973030;28;20048;-83
2021/11/03 03:11:28;;;;;;;4.88;3.97;;;5.30;69.30;;;;;;4957152;28;20038;-81
2021/11/03 03:13:56;;;;;;;5.68;4.60;;;5.20;69.10;;;;;;4973051;28;20031;-82
2021/11/03 03:16:23;;;;;;;4.47;3.75;;;5.20;69.10;;;;;;4976427;28;20034;-82
2021/11/03 03:18:49;;;;;;;6.28;4.18;;;5.30;69.30;;;;;;4993027;28;20066;-82
2021/11/03 03:21:18;;;;;;;5.65;3.72;;;5.20;69.60;;;;;;4984437;28;20037;-82
2021/11/03 03:23:47;;;;;;;4.10;3.60;;;5.20;69.10;;;;;;4992376;28;20034;-82
2021/11/03 03:26:15;;;;;;;4.78;4.28;;;5.20;69.10;;;;;;5008560;28;20536;-82
2021/11/03 03:28:43;;;;;;;5.15;4.07;;;5.20;69.10;;;;;;4975547;28;20034;-82
2021/11/03 03:31:11;;;;;;;4.90;3.65;;;5.20;69.10;;;;;;5007952;28;20137;-81
2021/11/03 03:33:37;;;;;;;5.45;3.63;;;5.10;69.00;;;;;;4991948;28;20121;-82
2021/11/03 03:36:06;;;;;;;4.75;3.35;;;5.10;69.00;;;;;;5008012;28;20074;-82
2021/11/03 03:38:32;;;;;;;5.30;4.10;;;5.10;69.00;;;;;;4991820;28;20030;-82
2021/11/03 03:40:58;;;;;;;4.80;3.75;;;5.10;69.00;;;;;;4991514;28;20030;-82
2021/11/03 03:43:25;;;;;;;4.72;3.55;;;5.10;69.00;;;;;;4991812;28;20125;-81
2021/11/03 03:45:52;;;;;;;5.13;4.20;;;5.10;69.00;;;;;;4991799;28;20034;-81
2021/11/03 03:48:18;;;;;;;5.03;3.58;;;5.10;69.00;;;;;;4991513;28;20066;-81
2021/11/03 03:50:45;;;;;;;4.97;3.65;;;5.00;68.80;;;;;;4982339;28;20042;-81
2021/11/03 03:53:12;;;;;;;4.85;3.70;;;5.00;68.80;;;;;;4991598;28;20121;-82
2021/11/03 03:55:39;;;;;;;5.80;3.90;;;5.00;68.90;;;;;;5007873;28;20065;-81
2021/11/03 03:58:07;;;;;;;5.47;4.35;;;5.00;68.90;;;;;;4991144;28;20035;-81
2021/11/03 04:00:35;;;;;;;4.85;3.80;;;5.00;68.90;;;;;;4991150;28;20034;-81
2021/11/03 04:03:03;;;;;;;6.47;4.28;;;5.00;68.90;;;;;;4991060;28;20034;-79
2021/11/03 04:05:30;;;;;;;3.88;3.50;;;4.90;68.70;;;;;;5007095;28;20128;-82
2021/11/03 04:07:57;;;;;;;4.90;4.05;;;4.90;68.70;;;;;;5007524;28;20026;-83
2021/11/03 04:10:23;;;;;;;5.00;4.07;;;4.90;68.70;;;;;;5007119;28;20119;-82
2021/11/03 04:12:51;;;;;;;5.07;3.80;;;4.90;68.70;;;;;;4990536;28;20117;-82
2021/11/03 04:15:20;;;;;;;4.60;3.80;;;4.90;68.80;;;;;;4992374;28;20033;-81
2021/11/03 04:17:46;;;;;;;5.78;4.43;;;4.90;68.80;;;;;;4991209;28;20035;-82
2021/11/03 04:20:14;;;;;;;5.28;4.00;;;4.90;68.80;;;;;;5007113;28;20033;-82
2021/11/03 04:22:42;;;;;;;5.85;4.30;;;4.90;68.80;;;;;;4990818;28;20041;-83
2021/11/03 04:25:10;;;;;;;5.22;4.30;;;4.90;68.80;;;;;;4981070;28;20497;-81
2021/11/03 04:27:37;;;;;;;5.97;4.40;;;4.90;68.80;;;;;;4990812;28;20026;-82
2021/11/03 04:30:05;;;;;;;4.20;3.78;;;4.90;68.80;;;;;;4990846;28;20076;-84
2021/11/03 04:32:31;;;;;;;5.68;4.38;;;4.80;68.60;;;;;;5006903;28;20034;-82
2021/11/03 04:34:57;;;;;;;4.93;4.13;;;4.90;68.90;;;;;;4991504;28;20113;-83
2021/11/03 04:37:24;;;;;;;5.97;4.32;;;4.80;68.70;;;;;;5007163;28;20034;-81
2021/11/03 04:39:51;;;;;;;4.57;4.10;;;4.80;68.70;;;;;;4990610;28;20076;-83
2021/11/03 04:42:17;;;;;;;5.40;4.35;;;4.80;68.70;;;;;;5006915;28;20061;-82
2021/11/03 04:44:43;;;;;;;6.20;5.05;;;4.80;68.70;;;;;;4991645;28;20034;-81
2021/11/03 04:47:10;;;;;;;5.07;4.28;;;4.80;68.70;;;;;;4990434;28;20537;-82
2021/11/03 04:49:39;;;;;;;4.65;3.92;;;4.70;68.50;;;;;;4974604;28;20038;-82
2021/11/03 04:52:05;;;;;;;6.05;4.75;;;4.80;68.70;;;;;;4991762;28;20121;-82
2021/11/03 04:54:31;;;;;;;4.47;3.80;;;4.80;68.70;;;;;;4996998;28;20470;-82
2021/11/03 04:56:58;;;;;;;6.68;4.70;;;4.80;68.70;;;;;;4990802;28;20390;-81
2021/11/03 04:59:24;;;;;;;5.05;4.05;;;4.70;68.50;;;;;;4990285;28;20466;-82
2021/11/03 05:01:53;;;;;;;5.38;4.57;;;4.70;68.50;;;;;;4990490;28;20394;-81
2021/11/03 05:04:20;;;;;;;5.15;4.28;;;4.70;68.60;;;;;;5006258;28;20031;-82
2021/11/03 05:06:48;;;;;;;6.20;4.18;;;4.70;68.60;;;;;;4991670;28;20483;-81
2021/11/03 05:09:17;;;;;;;5.82;4.30;;;4.70;68.60;;;;;;4990922;28;20031;-80
2021/11/03 05:11:44;;;;;;;6.55;4.70;;;4.70;68.60;;;;;;4989947;28;20460;-81
2021/11/03 05:14:10;;;;;;;5.68;4.65;;;4.70;68.60;;;;;;4990074;28;20125;-81
2021/11/03 05:16:41;;;;;;;5.57;4.28;;;4.70;68.60;;;;;;5003233;28;20497;-79
2021/11/03 05:19:09;;;;;;;6.32;4.78;;;4.70;68.60;;;;;;4989542;28;20027;-84
2021/11/03 05:21:40;;;;;;;6.05;4.93;;;4.70;68.70;;;;;;4990162;28;20042;-81
2021/11/03 05:24:08;;;;;;;5.75;4.55;;;4.70;68.70;;;;;;4990306;28;20474;-80
2021/11/03 05:26:34;;;;;;;6.90;5.07;;;4.70;68.70;;;;;;4995137;28;20045;-81
2021/11/03 05:29:01;;;;;;;6.60;5.07;;;4.70;68.70;;;;;;4995250;28;20027;-80
2021/11/03 05:31:28;;;;;;;6.22;5.10;;;4.70;68.70;;;;;;4985705;28;20030;-81
2021/11/03 05:33:54;;;;;;;6.25;4.97;;;4.60;68.50;;;;;;4995051;28;20040;-80
2021/11/03 05:36:23;;;;;;;5.40;4.57;;;4.60;68.40;;;;;;4995175;28;20038;-82
2021/11/03 05:38:50;;;;;;;5.80;4.93;;;4.60;68.40;;;;;;4994178;28;20046;-79
2021/11/03 05:41:16;;;;;;;5.43;4.50;;;4.60;68.50;;;;;;4995008;28;20034;-80
2021/11/03 05:43:42;;;;;;;6.45;5.05;;;4.60;68.50;;;;;;4994005;28;20061;-81
2021/11/03 05:46:11;;;;;;;6.70;4.55;;;4.60;68.50;;;;;;4994670;28;20030;-79
2021/11/03 05:48:38;;;;;;;6.57;5.03;;;4.60;68.50;;;;;;4987247;28;20035;-79
2021/11/03 05:51:05;;;;;;;6.70;5.43;;;4.60;68.50;;;;;;4988809;28;20042;-78
2021/11/03 05:53:31;;;;;;;5.82;4.60;;;4.60;68.50;;;;;;4989757;28;20382;-79
2021/11/03 05:55:57;;;;;;;7.13;5.50;;;4.60;68.50;;;;;;4991512;28;20117;-80
2021/11/03 05:58:23;;;;;;;6.72;4.90;;;4.60;68.50;;;;;;4991459;28;20125;-80
2021/11/03 06:00:49;;;;;;;6.18;5.13;;;4.60;68.60;;;;;;4991325;28;20060;-80
2021/11/03 06:03:15;;;;;;;7.55;5.80;;;4.60;68.60;;;;;;4988871;28;20419;-80
2021/11/03 06:05:41;;;;;;;6.07;5.07;;;4.60;68.60;;;;;;4979293;28;20069;-80
2021/11/03 06:08:07;;;;;;;5.90;5.07;;;4.50;68.40;;;;;;4996001;28;20041;-80
2021/11/03 06:10:39;;;;;;;6.95;5.78;;;4.50;68.40;;;;;;4998421;28;20422;-79
2021/11/03 06:13:06;;;;;;;5.97;5.00;;;4.60;68.60;;;;;;4998134;28;20039;-79
2021/11/03 06:15:33;;;;;;;6.00;4.78;;;4.50;68.40;;;;;;4963176;28;20031;-79
2021/11/03 06:18:00;;;;;;;7.32;5.75;;;4.50;68.50;;;;;;4973728;28;20425;-82
2021/11/03 06:20:27;;;;;;;6.10;4.55;;;4.50;68.50;;;;;;5009267;28;20022;-80
2021/11/03 06:22:53;;;;;;;6.53;5.80;;;4.60;68.70;;;;;;4987639;28;20594;-85
2021/11/03 06:25:19;;;;;;;7.32;5.32;;;4.60;68.70;;;;;;4981507;28;20113;-81
2021/11/03 06:27:46;;;;;;;6.80;5.75;;;4.60;68.80;;;;;;4993712;28;20194;-82
2021/11/03 06:30:18;;;;;;;8.45;5.85;;;4.60;68.80;;;;;;4991803;28;20121;-82
2021/11/03 06:32:44;;;;;;;7.07;5.87;;;4.60;68.80;;;;;;5002081;28;20046;-84
2021/11/03 06:35:11;;;;;;;6.70;5.68;;;4.60;68.80;;;;;;4989639;28;20493;-84
2021/11/03 06:37:38;;;;;;;6.38;5.63;;;4.60;68.80;;;;;;5013806;28;20070;-80
2021/11/03 06:40:06;;;;;;;7.03;5.30;;;4.60;68.80;;;;;;4990403;28;20041;-81
2021/11/03 06:42:32;;;;;;;7.88;6.20;;;4.60;68.80;;;;;;4995517;28;20077;-85
2021/11/03 06:44:58;;;;;;;8.07;5.97;;;4.60;68.80;;;;;;4988131;28;20034;-84
2021/11/03 06:47:24;;;;;;;7.85;6.57;;;4.60;68.80;;;;;;4989495;28;20092;-81
2021/11/03 06:49:50;;;;;;;8.52;6.72;;;4.60;68.80;;;;;;5007206;28;20050;-83
2021/11/03 06:52:16;;;;;;;8.43;6.45;;;4.60;68.90;;;;;;5003938;28;20044;-81
2021/11/03 06:54:42;;;;;;;7.50;6.05;;;4.70;69.10;;;;;;4989165;28;20109;-79
2021/11/03 06:57:09;;;;;;;7.22;6.20;;;4.70;69.10;;;;;;4989281;28;20038;-79
2021/11/03 06:59:35;;;;;;;7.35;5.60;;;4.60;68.90;;;;;;5005565;28;20397;-80
2021/11/03 07:02:02;;;;;;;8.55;6.88;;;4.70;69.10;;;;;;5007188;28;20556;-79
2021/11/03 07:04:28;;;;;;;6.78;5.50;;;4.80;69.30;;;;;;5008473;28;20076;-81
2021/11/03 07:06:54;;;;;;;7.10;6.40;;;4.70;69.20;;;;;;5009145;28;20491;-83
2021/11/03 07:09:20;;;;;;;9.55;6.88;;;4.70;69.10;;;;;;4990461;28;20026;-83
2021/11/03 07:11:46;;;;;;;9.18;7.43;;;4.80;69.40;;;;;;4979882;28;20047;-82
2021/11/03 07:14:13;;;;;;;10.95;8.20;;;4.80;69.60;;;;;;4988077;28;20030;-80
2021/11/03 07:16:39;;;;;;;8.27;6.82;;;4.80;69.70;;;;;;5000913;28;20049;-82
2021/11/03 07:19:06;;;;;;;9.18;7.20;;;4.90;69.90;;;;;;4992207;28;20026;-80
2021/11/03 07:21:32;;;;;;;8.68;7.05;;;4.90;69.90;;;;;;5008499;28;20534;-80
2021/11/03 07:23:58;;;;;;;8.38;7.07;;;5.00;70.10;;;;;;4987926;28;20529;-79
2021/11/03 07:26:24;;;;;;;10.02;7.53;;;5.00;70.10;;;;;;4985250;28;20034;-80
2021/11/03 07:28:51;;;;;;;9.45;7.85;;;5.00;70.10;;;;;;4985589;28;20026;-79
2021/11/03 07:31:17;;;;;;;10.20;7.28;;;5.00;70.10;;;;;;4985161;28;20077;-80
2021/11/03 07:33:43;;;;;;;9.07;6.53;;;5.00;70.10;;;;;;5000093;28;20030;-81
2021/11/03 07:36:13;;;;;;;8.88;7.45;;;5.00;70.20;;;;;;5004413;28;20034;-79
2021/11/03 07:38:40;;;;;;;9.05;6.40;;;5.10;70.40;;;;;;4996380;28;20093;-80
2021/11/03 07:41:06;;;;;;;9.18;6.93;;;5.10;70.40;;;;;;4996008;28;20035;-81
2021/11/03 07:43:34;;;;;;;10.35;7.45;;;5.10;70.40;;;;;;4980048;28;20120;-80
2021/11/03 07:46:02;;;;;;;9.23;7.00;;;5.20;70.60;;;;;;4986264;28;20034;-80
2021/11/03 07:48:29;;;;;;;8.43;7.53;;;5.20;70.60;;;;;;4995761;28;20080;-81
2021/11/03 07:51:00;;;;;;;9.50;7.40;;;5.20;70.60;;;;;;5022147;28;20108;-80
2021/11/03 07:53:26;;;;;;;9.20;7.22;;;5.30;70.80;;;;;;4995075;28;20026;-81
2021/11/03 07:56:00;;;;;;;9.80;6.93;;;5.30;70.80;;;;;;4970501;28;20397;-80
2021/11/03 07:58:29;;;;;;;8.73;7.15;;;5.40;70.90;;;;;;5011272;28;20083;-80
2021/11/03 08:00:56;;;;;;;9.40;7.38;;;5.40;70.90;;;;;;5022889;28;20628;-79
2021/11/03 08:03:23;;;;;;;9.20;7.00;;;5.50;71.10;;;;;;5010806;28;20379;-80
2021/11/03 08:05:50;;;;;;;9.35;7.10;;;5.50;71.00;;;;;;4987281;28;20061;-79
2021/11/03 08:08:19;;;;;;;11.23;7.43;;;5.60;71.20;;;;;;4986832;28;20037;-79
2021/11/03 08:10:46;;;;;;;8.82;7.07;;;5.60;71.20;;;;;;4986825;28;20030;-79
2021/11/03 08:13:16;;;;;;;9.02;6.45;;;5.70;71.40;;;;;;4986012;28;20030;-79
2021/11/03 08:15:44;;;;;;;10.13;7.28;;;5.70;71.30;;;;;;4988080;28;20363;-79
2021/11/03 08:18:12;;;;;;;8.27;7.18;;;5.80;71.50;;;;;;4993553;28;20078;-81
2021/11/03 08:20:39;;;;;;;9.23;7.35;;;5.90;71.60;;;;;;5006472;28;20065;-81
2021/11/03 08:23:06;;;;;;;8.65;6.88;;;5.90;71.60;;;;;;4997865;28;20438;-79
2021/11/03 08:25:33;;;;;;;9.05;7.30;;;6.00;71.80;;;;;;5002353;28;20096;-78
2021/11/03 08:27:59;;;;;;;9.45;6.65;;;5.90;71.60;;;;;;4986936;28;20038;-77
2021/11/03 08:30:25;;;;;;;9.80;7.07;;;6.10;71.90;;;;;;4987783;28;20038;-77
2021/11/03 08:32:56;;;;;;;9.23;7.15;;;6.10;72.30;;;;;;4986811;28;20402;-79
2021/11/03 08:35:25;;;;;;;10.30;7.88;;;6.10;71.90;;;;;;4986666;28;20122;-78
2021/11/03 08:37:53;;;;;;;8.32;7.07;;;6.20;72.10;;;;;;4990487;28;20121;-80
2021/11/03 08:40:21;;;;;;;10.27;7.93;;;6.30;72.30;;;;;;5020865;28;20401;-77
2021/11/03 08:42:49;;;;;;;9.43;7.05;;;6.40;72.40;;;;;;4999876;28;20031;-77
2021/11/03 08:45:16;;;;;;;9.13;6.97;;;6.40;72.30;;;;;;4986375;28;20482;-81
2021/11/03 08:47:43;;;;;;;8.60;6.60;;;6.50;72.50;;;;;;4985652;28;20081;-80
2021/11/03 08:50:14;;;;;;;9.43;7.07;;;6.60;72.60;;;;;;4985989;28;20086;-80
2021/11/03 08:52:41;;;;;;;8.68;6.75;;;6.60;72.60;;;;;;4986799;28;20055;-81
2021/11/03 08:55:08;;;;;;;8.27;6.72;;;6.70;73.20;;;;;;5002053;28;20350;-83
2021/11/03 08:57:40;;;;;;;9.68;7.65;;;6.80;72.90;;;;;;5001802;28;20048;-82
2021/11/03 09:00:20;;;;;;;7.57;6.57;;;6.90;73.00;;;;;;4985815;28;20377;-82
2021/11/03 09:02:48;;;;;;;9.00;7.65;;;6.90;73.00;;;;;;4992661;28;20504;-81
2021/11/03 09:05:14;;;;;;;9.52;7.93;;;7.00;73.10;;;;;;5006255;28;20101;-79
2021/11/03 09:07:41;;;;;;;9.93;7.93;;;7.00;73.10;;;;;;5019590;28;20401;-81
2021/11/03 09:10:11;;;;;;;10.57;8.30;;;7.10;73.30;;;;;;5001390;28;20034;-80
2021/11/03 09:12:38;;;;;;;9.80;7.63;;;7.20;73.40;;;;;;5006761;28;20046;-81
2021/11/03 09:15:06;;;;;;;8.38;6.75;;;7.30;73.50;;;;;;4999360;28;20061;-81
2021/11/03 09:17:32;;;;;;;9.27;7.50;;;7.40;73.70;;;;;;4980464;28;20479;-81
2021/11/03 09:19:58;;;;;;;8.65;6.90;;;7.50;73.80;;;;;;4986359;28;20080;-81
2021/11/03 09:22:24;;;;;;;9.43;7.28;;;7.50;73.80;;;;;;4986090;28;20382;-81
2021/11/03 09:24:50;;;;;;;7.60;6.80;;;7.60;73.90;;;;;;4986570;28;20445;-82
2021/11/03 09:27:16;;;;;;;9.40;7.47;;;7.70;74.00;;;;;;4986109;28;20478;-81
2021/11/03 09:29:44;;;;;;;8.85;7.35;;;7.80;74.20;;;;;;4986210;28;20042;-81
2021/11/03 09:32:13;;;;;;;8.05;6.85;;;7.80;74.10;;;;;;4985999;28;20046;-81
2021/11/03 09:34:43;;;;;;;8.73;7.60;;;7.90;74.20;;;;;;4984946;28;20470;-81
2021/11/03 09:37:13;;;;;;;8.13;7.32;;;8.00;74.40;;;;;;4985852;28;20690;-81
2021/11/03 09:39:41;;;;;;;9.45;7.75;;;8.10;74.50;;;;;;4984459;28;20290;-81
2021/11/03 09:42:12;;;;;;;10.05;8.00;;;8.10;74.40;;;;;;5001379;28;20134;-81
2021/11/03 09:44:40;;;;;;;8.27;7.28;;;8.20;74.50;;;;;;4968889;28;20026;-81
2021/11/03 09:47:15;;;;;;;8.48;7.68;;;8.30;74.60;;;;;;4985719;28;20038;-81
2021/11/03 09:49:46;;;;;;;8.82;7.85;;;8.40;74.80;;;;;;5003292;28;20049;-81
2021/11/03 09:52:24;;;;;;;10.57;7.95;;;8.50;74.90;;;;;;5002808;28;20567;-80
2021/11/03 09:54:57;;;;;;;7.95;7.07;;;8.60;74.90;;;;;;4987167;28;20030;-80
2021/11/03 09:57:38;;;;;;;7.95;6.82;;;8.70;75.00;;;;;;4985048;28;20035;-82
2021/11/03 10:00:16;;;;;;;9.27;7.00;;;8.80;75.10;;;;;;4986420;28;20037;-78
2021/11/03 10:03:03;;;;;;;8.27;6.57;;;8.80;75.00;;;;;;4986077;28;20041;-77
2021/11/03 10:05:43;;;;;;;8.02;7.22;;;8.90;75.10;;;;;;4974681;28;20042;-77
2021/11/03 10:08:19;;;;;;;7.25;6.55;;;9.00;75.20;;;;;;4986029;28;20057;-78
2021/11/03 10:10:58;;;;;;;8.32;6.03;;;9.10;75.30;;;;;;4986221;28;20114;-79
2021/11/03 10:13:26;;;;;;;7.18;5.82;;;9.20;75.40;;;;;;4988978;28;20394;-79
2021/11/03 10:15:55;;;;;;;6.60;5.80;;;9.30;75.50;;;;;;4988024;28;20494;-78
2021/11/03 10:18:23;;;;;;;8.07;5.75;;;9.40;75.60;;;;;;4984310;28;20041;-80
2021/11/03 10:21:17;;;;;;;7.75;6.38;;;9.40;75.60;;;;;;5009273;28;20080;-78
2021/11/03 10:24:03;;;;;;;6.43;5.60;;;9.50;75.70;;;;;;4995716;28;20034;-78
2021/11/03 10:26:32;;;;;;;6.97;5.57;;;9.60;76.30;;;;;;5004626;28;20038;-81
2021/11/03 10:29:12;;;;;;;6.97;5.13;;;9.60;75.60;;;;;;4989056;28;20548;-79
2021/11/03 10:31:47;;;;;;;6.55;5.20;;;9.70;75.80;;;;;;4989750;28;20057;-80
2021/11/03 10:34:19;;;;;;;6.95;6.25;;;9.70;75.70;;;;;;4987749;28;20061;-79
2021/11/03 10:36:47;;;;;;;7.33;5.53;;;9.80;75.80;;;;;;4975123;28;20471;-81
2021/11/03 10:39:18;;;;;;;6.55;4.75;;;9.90;76.00;;;;;;5001899;28;20057;-81
2021/11/03 10:41:55;;;;;;;6.18;5.25;;;9.90;75.90;;;;;;4989118;28;20057;-78
2021/11/03 10:44:26;;;;;;;6.20;4.88;;;10.00;76.00;;;;;;5003698;28;20034;-80
2021/11/03 10:47:09;;;;;;;5.03;4.53;;;10.10;76.10;;;;;;4989016;28;20034;-80
2021/11/03 10:49:56;;;;;;;8.05;4.80;;;10.10;76.00;;;;;;4989172;28;20046;-79
2021/11/03 10:52:39;;;;;;;4.97;4.53;;;10.20;76.10;;;;;;5002963;28;20588;-79
2021/11/03 10:55:14;;;;;;;5.82;4.00;;;10.20;76.00;;;;;;4987601;28;20085;-80
2021/11/03 10:57:45;;;;;;;4.78;4.28;;;10.40;76.20;;;;;;4988473;28;20478;-80
2021/11/03 11:00:17;;;;;;;4.18;3.78;;;10.40;76.10;;;;;;4988620;28;20293;-80
2021/11/03 11:03:13;;;;;;;5.72;4.47;;;10.50;76.20;;;;;;4987723;28;20086;-81
2021/11/03 11:05:51;;;;;;;4.15;3.75;;;10.60;76.20;;;;;;5002822;28;20042;-80
2021/11/03 11:08:22;;;;;;;4.45;3.65;;;10.70;76.30;;;;;;4988097;28;20489;-79
2021/11/03 11:10:58;;;;;;;4.30;3.90;;;10.80;76.30;;;;;;4987869;28;20026;-79
2021/11/03 11:13:31;;;;;;;4.35;3.47;;;10.90;76.40;;;;;;4986975;28;20103;-79
2021/11/03 11:16:06;;;;;;;4.15;3.22;;;10.90;76.30;;;;;;4988271;28;20149;-81
2021/11/03 11:18:50;;;;;;;3.80;3.38;;;11.00;76.40;;;;;;4987913;28;20045;-80
2021/11/03 11:21:35;;;;;;;4.05;3.30;;;11.10;76.40;;;;;;4988282;28;20034;-80
2021/11/03 11:24:12;;;;;;;3.47;3.17;;;11.20;76.40;;;;;;5002552;28;20030;-82
2021/11/03 11:26:48;;;;;;;4.60;4.03;;;11.20;76.20;;;;;;5022625;28;20038;-82
2021/11/03 11:29:44;;;;;;;4.15;3.35;;;11.20;76.20;;;;;;5006533;28;20084;-82
2021/11/03 11:32:24;;;;;;;9.23;3.45;;;11.20;76.00;;;;;;4988587;28;20168;-81
2021/11/03 11:35:32;;;;;;;3.33;3.03;;;11.20;76.00;;;;;;4988606;28;20038;-80
2021/11/03 11:38:27;;;;;;;4.70;3.13;;;11.20;75.90;;;;;;4979282;28;20050;-78
2021/11/03 11:41:21;;;;;;;2.83;2.38;;;11.20;75.90;;;;;;4986541;28;20038;-80
2021/11/03 11:44:16;;;;;;;3.30;2.72;;;11.20;75.80;;;;;;4999456;28;20513;-81
2021/11/03 11:46:44;;;;;;;3.10;2.72;;;11.20;75.80;;;;;;4983259;28;20089;-81
2021/11/03 11:49:33;;;;;;;3.47;2.25;;;11.20;75.80;;;;;;4970238;28;20058;-80
2021/11/03 11:52:20;;;;;;;3.45;3.15;;;11.10;75.60;;;;;;4988374;28;20491;-79
2021/11/03 11:55:27;;;;;;;2.78;2.53;;;11.10;75.50;;;;;;4987217;28;20045;-77
2021/11/03 11:58:01;;;;;;;2.70;2.13;;;11.10;75.90;;;;;;4943072;28;20042;-80
2021/11/03 12:00:27;;;;;;;4.20;2.00;;;11.20;76.20;;;;;;4911360;29;20043;-79
2021/11/03 12:03:08;;;;;;;2.72;2.17;;;11.20;76.20;;;;;;4955944;28;20046;-80
2021/11/03 12:05:44;;;;;;;3.50;2.35;;;11.30;76.50;;;;;;4987894;28;20081;-83
2021/11/03 12:08:13;;;;;;;2.55;2.22;;;11.30;76.50;;;;;;4986754;28;20030;-81
2021/11/03 12:10:57;;;;;;;3.47;2.42;;;11.30;76.50;;;;;;4986265;28;20378;-79
2021/11/03 12:13:38;;;;;;;4.20;2.75;;;11.30;76.60;;;;;;4987012;28;20088;-80
2021/11/03 12:16:29;;;;;;;5.40;2.92;;;11.30;76.50;;;;;;4987607;28;20027;-80
2021/11/03 12:18:58;;;;;;;3.42;2.15;;;11.30;76.60;;;;;;4987442;28;20042;-83
2021/11/03 12:21:24;;;;;;;4.78;2.78;;;11.30;76.60;;;;;;5002960;28;20026;-79
2021/11/03 12:23:50;;;;;;;5.15;2.65;;;11.30;76.60;;;;;;4987418;28;20089;-79
2021/11/03 12:26:28;;;;;;;4.28;2.38;;;11.30;76.60;;;;;;4987311;28;20027;-78
2021/11/03 12:29:01;;;;;;;4.45;2.50;;;11.40;76.80;;;;;;4986203;28;20368;-80
2021/11/03 12:31:30;;;;;;;3.85;2.53;;;11.40;76.70;;;;;;5002553;28;20324;-81
2021/11/03 12:34:03;;;;;;;4.57;2.40;;;11.40;76.70;;;;;;4987554;28;20402;-79
2021/11/03 12:36:32;;;;;;;6.93;2.42;;;11.50;76.90;;;;;;4986471;28;20493;-79
2021/11/03 12:39:04;;;;;;;10.73;3.45;;;11.50;76.90;;;;;;4987143;28;20481;-79
2021/11/03 12:41:48;;;;;;;5.88;3.05;;;11.60;77.60;;;;;;4986661;28;20034;-79
2021/11/03 12:44:27;;;;;;;5.60;3.10;;;11.80;78.70;;;;;;4987564;28;20394;-79
2021/11/03 12:46:54;;;;;;;6.22;2.80;;;12.00;79.10;;;;;;5001955;28;20140;-78
2021/11/03 12:49:26;;;;;;;6.57;2.38;;;12.20;79.40;;;;;;4986744;28;20457;-77
2021/11/03 12:52:01;;;;;;;4.50;2.58;;;12.40;79.70;;;;;;4985472;28;20053;-78
2021/11/03 12:54:30;;;;;;;4.75;2.30;;;12.60;79.80;;;;;;4986962;28;20026;-76
2021/11/03 12:57:18;;;;;;;5.55;2.22;;;12.80;79.90;;;;;;4987469;28;20038;-77
2021/11/03 13:00:08;;;;;;;4.38;2.63;;;12.90;79.90;;;;;;5002011;28;20382;-79
2021/11/03 13:02:44;;;;;;;10.50;3.10;;;13.10;80.10;;;;;;4986608;28;20034;-81
2021/11/03 13:05:18;;;;;;;9.75;3.58;;;13.20;80.00;;;;;;4986762;28;20446;-79
2021/11/03 13:07:44;;;;;;;9.05;3.38;;;13.30;79.90;;;;;;4986643;28;20129;-78
2021/11/03 13:10:28;;;;;;;11.52;4.35;;;13.50;80.00;;;;;;4987121;28;20038;-83
2021/11/03 13:13:06;;;;;;;7.70;3.05;;;13.60;79.90;;;;;;4987221;28;20100;-79